Time;durP1;ratioP1;P1;durP2;ratioP2;P2;SDS_P1;SDS_P2;PMS_P1;PMS_P2;Temp;Humidity;BMP_temperature;BMP_pressure;BME280_temperature;BME280_humidity;BME280_pressure;Samples;Min_cycle;Max_cycle;Signal;HPM_P1;HPM_P2
2023/09/11 04:45:37;;;;;;;89.55;41.95;;;;;;;13.66;74.56;99922.00;4895131;29;20061;-90
2023/09/11 04:48:04;;;;;;;85.38;41.88;;;;;;;14.02;74.37;99971.25;4802544;29;20057;-90
2023/09/11 04:50:30;;;;;;;106.75;44.20;;;;;;;13.73;74.50;99919.59;4804513;29;20468;-89
2023/09/11 04:52:56;;;;;;;91.78;42.53;;;;;;;13.89;74.30;99972.19;4833775;29;20099;-90
2023/09/11 04:55:31;;;;;;;91.57;42.27;;;;;;;13.97;74.28;99974.19;4832299;29;20052;-89
2023/09/11 04:57:58;;;;;;;88.80;41.97;;;;;;;13.82;74.60;99944.38;4851699;29;20624;-91
2023/09/11 05:00:26;;;;;;;96.22;43.92;;;;;;;14.13;74.41;99960.75;4851621;29;20090;-87
2023/09/11 05:02:52;;;;;;;87.22;41.17;;;;;;;14.13;74.97;99966.25;4836961;29;20057;-88
2023/09/11 05:05:27;;;;;;;84.20;42.60;;;;;;;14.12;74.99;99952.84;4847215;29;20048;-88
2023/09/11 05:07:54;;;;;;;86.40;41.63;;;;;;;14.30;74.84;99955.31;4815038;29;20050;-89
2023/09/11 05:10:20;;;;;;;90.20;42.22;;;;;;;14.25;74.42;99963.72;4829708;29;20619;-87
2023/09/11 05:12:46;;;;;;;88.82;42.97;;;;;;;14.36;74.08;99963.38;4847202;29;20050;-87
2023/09/11 05:15:13;;;;;;;89.07;42.92;;;;;;;14.28;74.38;99957.56;4834193;29;20062;-86
2023/09/11 05:17:39;;;;;;;86.63;43.73;;;;;;;14.27;74.25;99955.94;4816498;29;20046;-87
2023/09/11 05:20:06;;;;;;;94.22;42.85;;;;;;;14.30;73.78;99960.81;4850298;29;20049;-89
2023/09/11 05:23:17;;;;;;;99.70;45.05;;;;;;;13.79;74.05;99887.31;4769627;30;20611;-90
2023/09/11 05:25:44;;;;;;;91.80;41.85;;;;;;;14.15;74.15;99943.97;4760976;30;20056;-90
2023/09/11 05:28:10;;;;;;;;;;;;;;;14.18;74.21;99965.31;4759559;30;20130;-90
2023/09/11 05:30:38;;;;;;;91.80;41.80;;;;;;;14.13;74.59;99943.47;4755109;30;20044;-88
2023/09/11 05:33:04;;;;;;;101.80;43.88;;;;;;;13.85;74.90;99917.06;4741760;30;20066;-88
2023/09/11 05:35:31;;;;;;;91.78;44.65;;;;;;;14.12;75.20;99961.91;4771752;30;20043;-88
2023/09/11 05:38:26;;;;;;;113.65;48.42;;;;;;;13.74;74.95;99882.78;4758534;30;20043;-88
2023/09/11 05:40:52;;;;;;;126.45;51.83;;;;;;;14.20;75.07;99950.09;4758237;30;20055;-89
2023/09/11 05:43:18;;;;;;;118.20;51.10;;;;;;;14.29;75.18;99948.16;4762036;30;20047;-89
2023/09/11 05:45:44;;;;;;;114.20;51.33;;;;;;;14.26;74.60;99942.50;4747233;30;20059;-91
2023/09/11 05:48:11;;;;;;;120.27;49.17;;;;;;;14.23;74.86;99932.94;4753516;30;20600;-90
2023/09/11 05:53:24;;;;;;;;;;;;;;;14.51;75.53;99946.44;4772096;30;20064;-88
2023/09/11 05:55:50;;;;;;;123.67;48.13;;;;;;;14.53;75.53;99939.47;4745942;30;20024;-90
2023/09/11 05:58:16;;;;;;;113.30;49.97;;;;;;;14.66;75.83;99945.94;4746134;30;20067;-92
2023/09/11 06:00:42;;;;;;;137.70;51.78;;;;;;;14.49;76.12;99912.91;4769492;29;20054;-94
2023/09/11 06:03:09;;;;;;;120.28;50.60;;;;;;;14.58;75.95;99924.75;4782840;29;20046;-91
2023/09/11 06:06:08;;;;;;;112.88;48.80;;;;;;;14.51;76.04;99899.69;4766049;30;20055;-87
2023/09/11 06:08:59;;;;;;;102.35;46.80;;;;;;;14.86;75.93;99933.44;4769525;30;20051;-93
2023/09/11 06:11:31;;;;;;;93.00;43.58;;;;;;;14.64;75.86;99895.94;4787655;30;20088;-95
2023/09/11 06:13:57;;;;;;;82.57;40.88;;;;;;;14.90;75.99;99922.59;4793146;29;20085;-91
2023/09/11 06:16:24;;;;;;;;;;;;;;;14.97;75.67;99933.94;4782248;30;20048;-89
2023/09/11 06:19:41;;;;;;;91.07;39.58;;;;;;;15.02;76.07;99931.81;4770097;30;19932;-92
2023/09/11 06:22:10;;;;;;;81.35;39.17;;;;;;;15.02;76.08;99931.81;4801425;29;20044;-93
2023/09/11 06:24:39;;;;;;;88.50;39.95;;;;;;;15.07;76.67;99932.78;4773666;30;20048;-93
2023/09/11 06:27:08;;;;;;;78.55;39.75;;;;;;;15.01;75.98;99907.38;4774012;30;20062;-90
2023/09/11 06:29:36;;;;;;;86.20;41.65;;;;;;;15.24;76.50;99929.97;4793284;29;20059;-92
2023/09/11 06:32:24;;;;;;;89.78;41.45;;;;;;;15.28;76.15;99923.47;4794747;29;20135;-93
2023/09/11 06:34:56;;;;;;;81.82;39.97;;;;;;;15.20;75.77;99902.28;4805192;30;20133;-92
2023/09/11 06:37:25;;;;;;;76.40;38.20;;;;;;;15.45;75.78;99935.56;4792882;29;20147;-94
2023/09/11 06:40:17;;;;;;;80.90;39.30;;;;;;;15.58;75.77;99934.53;4819855;29;20080;-93
2023/09/11 06:42:50;;;;;;;85.00;39.58;;;;;;;15.61;75.64;99928.38;4799887;29;20437;-94
2023/09/11 06:50:40;;;;;;;71.88;36.25;;;;;;;15.84;74.97;99944.66;4846718;29;20061;-92
2023/09/11 06:53:22;;;;;;;79.88;35.63;;;;;;;15.73;74.29;99911.97;4845106;29;20050;-94
2023/09/11 06:59:24;;;;;;;80.07;34.40;;;;;;;15.99;74.18;99922.00;4977058;23;20044;-94
2023/09/11 07:01:53;;;;;;;88.07;36.45;;;;;;;16.08;74.30;99916.44;4881731;29;20525;-95
2023/09/11 07:04:35;;;;;;;87.68;36.33;;;;;;;16.28;73.60;99932.19;4873136;29;20120;-93
2023/09/11 07:07:10;;;;;;;73.63;35.25;;;;;;;16.34;73.23;99930.06;4857797;29;20135;-94
2023/09/11 07:09:43;;;;;;;72.80;33.03;;;;;;;16.29;72.40;99911.75;4904179;29;20080;-94
2023/09/11 07:12:35;;;;;;;66.18;31.45;;;;;;;16.51;71.62;99935.44;4867380;29;20037;-91
2023/09/11 07:15:23;;;;;;;52.33;27.63;;;;;;;16.56;71.23;99934.44;4893774;29;20048;-92
2023/09/11 07:18:07;;;;;;;55.35;27.48;;;;;;;16.58;71.26;99932.91;4894928;29;20327;-90
2023/09/11 07:20:53;;;;;;;53.80;29.05;;;;;;;16.49;70.56;99903.78;4914182;29;20104;-92
2023/09/11 07:23:20;;;;;;;57.25;29.08;;;;;;;16.71;69.32;99933.00;4909924;29;20041;-90
2023/09/11 07:25:58;;;;;;;54.55;28.55;;;;;;;16.32;69.55;99877.16;4882086;29;20056;-95
2023/09/11 07:29:26;;;;;;;58.95;28.77;;;;;;;16.76;69.72;99936.38;4879439;29;20051;-96
2023/09/11 07:32:35;;;;;;;52.50;27.73;;;;;;;16.82;69.72;99945.25;4917926;29;20052;-93
2023/09/11 07:35:17;;;;;;;56.78;29.17;;;;;;;16.69;69.27;99919.53;4898797;29;20041;-92
2023/09/11 07:38:44;;;;;;;66.15;28.08;;;;;;;16.43;69.42;99864.56;4901548;29;20040;-94
2023/09/11 07:48:27;;;;;;;58.13;26.73;;;;;;;17.13;68.78;99930.97;4890912;23;20748;-90
2023/09/11 07:51:12;;;;;;;53.15;26.95;;;;;;;17.03;68.20;99907.34;4884013;29;20049;-90
2023/09/11 07:54:44;;;;;;;45.90;25.40;;;;;;;17.24;67.94;99932.13;4898110;29;20079;-90
2023/09/11 07:58:57;;;;;;;58.42;27.13;;;;;;;17.25;68.20;99932.94;4932468;29;20040;-90
2023/09/11 08:02:01;;;;;;;59.38;27.45;;;;;;;17.33;68.12;99930.09;4892872;29;20053;-90
2023/09/11 08:04:30;;;;;;;48.27;26.37;;;;;;;17.34;67.31;99936.41;4859907;29;20061;-90
2023/09/11 08:07:22;;;;;;;70.93;28.48;;;;;;;17.46;67.17;99930.09;4883707;29;20293;-89
2023/09/11 08:09:53;;;;;;;48.95;25.88;;;;;;;17.13;67.89;99871.00;4937148;23;20061;-91
2023/09/11 08:12:44;;;;;;;45.88;26.33;;;;;;;17.50;66.13;99934.59;4901906;29;20048;-89
2023/09/11 08:15:12;;;;;;;48.45;25.30;;;;;;;17.22;65.80;99879.19;4921316;29;20044;-90
2023/09/11 08:18:03;;;;;;;48.75;26.27;;;;;;;17.32;66.33;99891.75;4916173;29;20071;-90
2023/09/11 08:23:45;;;;;;;53.73;25.43;;;;;;;17.72;66.22;99930.59;4898615;29;20048;-92
2023/09/11 08:26:31;;;;;;;49.13;24.80;;;;;;;17.79;66.08;99928.06;4918508;29;20045;-92
2023/09/11 08:29:12;;;;;;;48.67;23.75;;;;;;;17.51;65.53;99882.88;4902716;29;20044;-93
2023/09/11 08:32:33;;;;;;;39.17;23.05;;;;;;;17.80;65.20;99918.59;4916571;29;20040;-91
2023/09/11 08:35:02;;;;;;;42.95;24.13;;;;;;;17.82;65.38;99898.91;4916016;29;20084;-91
2023/09/11 08:37:30;;;;;;;49.40;24.85;;;;;;;17.88;63.88;99896.69;4871056;29;20045;-90
2023/09/11 08:40:47;;;;;;;37.35;22.52;;;;;;;17.98;63.27;99916.41;4900465;29;20041;-92
2023/09/11 09:05:40;;;;;;;37.03;19.75;;;;;;;18.67;63.61;99891.53;2217572;23;20052;-89
2023/09/11 09:08:08;;;;;;;36.80;19.45;;;;;;;18.50;59.91;99845.56;4976342;23;20048;-88
2023/09/11 09:11:30;;;;;;;29.50;15.57;;;;;;;19.09;61.25;99878.03;4883411;29;20101;-88
2023/09/11 09:14:48;;;;;;;38.13;20.38;;;;;;;19.50;60.92;99895.28;4886590;29;20110;-90
2023/09/11 09:20:10;;;;;;;40.72;19.23;;;;;;;19.56;58.00;99880.00;4983837;23;20312;-88
2023/09/11 09:23:16;;;;;;;39.42;21.70;;;;;;;19.67;57.86;99896.94;4898465;29;20048;-89
2023/09/11 09:25:45;;;;;;;42.33;20.90;;;;;;;19.79;56.25;99882.94;4861574;29;20060;-85
2023/09/11 09:28:28;;;;;;;45.47;24.13;;;;;;;;;;4862471;29;20041;-90
2023/09/11 09:30:57;;;;;;;49.85;23.67;;;;;;;19.48;56.26;99881.00;4876513;29;20064;-89
2023/09/11 09:33:24;;;;;;;36.50;20.92;;;;;;;19.28;57.00;99844.09;4853982;29;20071;-89
2023/09/11 09:35:57;;;;;;;38.45;19.40;;;;;;;19.43;56.78;99882.06;4858201;29;20053;-91
2023/09/11 09:38:25;;;;;;;42.17;19.85;;;;;;;19.33;57.64;99852.13;4880068;29;20069;-90
2023/09/11 09:41:10;;;;;;;34.58;17.58;;;;;;;19.60;57.48;99883.69;4866244;29;20101;-89
2023/09/11 09:47:15;;;;;;;41.83;19.48;;;;;;;19.39;56.27;99861.78;5124986;23;20052;-90
2023/09/11 09:55:14;;;;;;;30.60;17.58;;;;;;;19.75;56.03;99882.06;4919849;29;20097;-92
2023/09/11 09:57:50;;;;;;;34.92;17.23;;;;;;;19.75;55.79;99884.84;4866682;29;20058;-90
2023/09/11 10:00:19;;;;;;;39.10;17.48;;;;;;;19.52;54.47;99850.59;4842865;29;20107;-89
2023/09/11 10:06:33;;;;;;;48.25;18.05;;;;;;;19.54;53.45;99846.28;5397610;23;20056;-89
2023/09/11 10:09:10;;;;;;;43.92;18.42;;;;;;;19.81;53.84;99880.63;4908531;29;20040;-91
2023/09/11 10:23:13;;;;;;;31.52;16.92;;;;;;;19.98;55.64;99875.84;1828392;23;19927;-93
2023/09/11 10:25:45;;;;;;;26.65;15.55;;;;;;;20.02;55.27;99863.66;5009955;23;20043;-90
2023/09/11 10:28:51;;;;;;;36.53;14.68;;;;;;;20.30;53.58;99871.00;4916033;29;20112;-91
2023/09/11 10:34:09;;;;;;;28.48;13.80;;;;;;;20.32;54.43;99830.56;4998037;23;20105;-90
2023/09/11 10:37:05;;;;;;;28.83;14.18;;;;;;;20.62;51.35;99874.44;4867606;29;20050;-88
2023/09/11 10:39:32;;;;;;;;;;;;;;;20.67;51.43;99868.59;4845021;29;20097;-90
2023/09/11 10:42:00;;;;;;;25.55;14.13;;;;;;;20.27;50.88;99797.56;4863113;29;19991;-91
2023/09/11 10:44:28;;;;;;;;;;;;;;;20.70;49.77;99872.63;4835356;29;20047;-90
2023/09/11 10:47:58;;;;;;;37.33;15.48;;;;;;;20.77;50.54;99864.41;4865024;29;20021;-89
2023/09/11 10:50:54;;;;;;;26.75;14.55;;;;;;;20.82;50.70;99858.53;4869018;29;20061;-90
2023/09/11 10:56:55;;;;;;;39.75;14.93;;;;;;;20.81;51.56;99829.16;4894645;29;20044;-88
2023/09/11 11:00:05;;;;;;;27.83;15.75;;;;;;;21.09;51.31;99864.97;4868676;29;20052;-89
2023/09/11 11:02:48;;;;;;;30.63;16.45;;;;;;;20.74;50.34;99815.94;4906854;29;20529;-89
2023/09/11 11:05:40;;;;;;;33.35;16.48;;;;;;;20.93;50.24;99859.56;4909918;29;20044;-90
2023/09/11 11:08:22;;;;;;;54.35;16.65;;;;;;;20.64;51.16;99841.53;4919248;23;20070;-90
2023/09/11 11:11:22;;;;;;;35.47;16.92;;;;;;;20.60;51.36;99863.69;4900676;29;20051;-91
2023/09/11 11:14:11;;;;;;;30.23;16.70;;;;;;;20.44;52.00;99867.69;4896453;29;20045;-89
2023/09/11 11:16:38;;;;;;;29.83;16.15;;;;;;;20.33;52.89;99867.47;4885048;29;20048;-90
2023/09/11 11:19:05;;;;;;;35.95;17.80;;;;;;;20.21;52.19;99870.41;4854853;29;20072;-91
2023/09/11 11:21:38;;;;;;;;;;;;;;;20.12;52.59;99860.28;4895690;29;20041;-89
2023/09/11 11:24:05;;;;;;;39.15;16.40;;;;;;;19.88;52.89;99832.81;4893882;29;19923;-89
2023/09/11 11:26:41;;;;;;;27.85;15.98;;;;;;;19.74;52.21;99819.44;4894205;29;20043;-90
2023/09/11 11:29:09;;;;;;;30.98;15.27;;;;;;;20.06;52.90;99870.06;4890228;29;20087;-90
2023/09/11 11:31:39;;;;;;;31.20;16.40;;;;;;;19.83;52.47;99819.22;4893194;29;20060;-90
2023/09/11 11:34:56;;;;;;;39.83;16.15;;;;;;;20.06;51.75;99860.94;4901159;29;20597;-90
2023/09/11 11:37:24;;;;;;;33.10;15.00;;;;;;;20.02;53.22;99855.31;4899432;29;20041;-90
2023/09/11 11:39:50;;;;;;;34.45;15.02;;;;;;;20.04;54.24;99860.53;4859267;29;20177;-91
2023/09/11 11:42:19;;;;;;;27.27;15.02;;;;;;;19.97;54.33;99832.59;4861314;29;20045;-89
2023/09/11 11:44:53;;;;;;;74.70;16.85;;;;;;;20.11;54.17;99863.44;4899681;29;20036;-90
2023/09/11 11:47:22;;;;;;;35.10;15.38;;;;;;;19.93;53.78;99822.25;4887530;29;20053;-90
2023/09/11 11:50:30;;;;;;;32.72;14.05;;;;;;;20.34;54.32;99846.88;4884870;29;20104;-90
2023/09/11 11:53:55;;;;;;;149.18;19.92;;;;;;;20.39;52.17;99855.69;4820493;29;20053;-91
2023/09/11 11:56:21;;;;;;;32.83;17.17;;;;;;;20.33;51.71;99829.41;4808397;29;20087;-91
2023/09/11 11:58:59;;;;;;;34.83;16.45;;;;;;;20.29;50.66;99813.84;4804825;29;20156;-90
2023/09/11 12:01:50;;;;;;;40.60;17.20;;;;;;;20.35;50.13;99804.84;4805317;29;20045;-90
2023/09/11 12:04:25;;;;;;;35.17;16.98;;;;;;;20.55;51.32;99805.66;4817813;29;20056;-89
2023/09/11 12:07:44;;;;;;;37.10;17.00;;;;;;;20.90;50.97;99848.38;4812160;29;20083;-89
2023/09/11 12:11:15;;;;;;;35.45;14.93;;;;;;;20.96;50.94;99847.69;4827278;29;20050;-92
2023/09/11 12:14:26;;;;;;;36.70;15.90;;;;;;;21.06;49.28;99843.50;4826123;29;20050;-90
2023/09/11 12:17:00;;;;;;;28.50;15.23;;;;;;;21.06;49.09;99818.47;4822857;29;20120;-91
2023/09/11 12:19:27;;;;;;;45.63;16.50;;;;;;;21.14;48.55;99811.84;4792657;29;20049;-89
2023/09/11 12:21:57;;;;;;;38.20;16.37;;;;;;;21.40;48.84;99836.13;4821960;29;20054;-90
2023/09/11 12:24:23;;;;;;;29.45;17.00;;;;;;;21.40;47.45;99836.13;4874665;29;20131;-90
2023/09/11 12:26:50;;;;;;;29.58;16.80;;;;;;;21.26;47.75;99800.53;4872068;29;20056;-89
2023/09/11 12:29:19;;;;;;;30.17;16.92;;;;;;;21.49;46.48;99822.78;4912631;29;20098;-91
2023/09/11 12:31:46;;;;;;;50.78;17.63;;;;;;;21.47;46.01;99808.44;4870707;29;20047;-92
2023/09/11 12:34:43;;;;;;;37.40;16.95;;;;;;;21.79;46.33;99836.72;4907922;29;20044;-90
2023/09/11 12:37:52;;;;;;;33.40;16.52;;;;;;;21.83;45.89;99834.00;4900037;29;20096;-90
2023/09/11 12:44:06;;;;;;;75.45;20.60;;;;;;;21.42;46.39;99786.47;4836627;29;20098;-89
2023/09/11 12:47:36;;;;;;;49.97;15.20;;;;;;;21.58;47.60;99831.63;4816823;29;20057;-91
2023/09/11 12:50:05;;;;;;;38.33;14.63;;;;;;;21.43;47.71;99831.81;4794054;29;20070;-90
2023/09/11 12:52:38;;;;;;;70.50;17.35;;;;;;;21.37;47.83;99831.31;4780080;29;20223;-91
2023/09/11 12:55:05;;;;;;;40.92;14.93;;;;;;;21.23;47.98;99823.53;4808512;29;20103;-91
2023/09/11 12:57:42;;;;;;;40.45;13.88;;;;;;;21.13;48.71;99818.59;4798738;29;20043;-91
2023/09/11 13:00:11;;;;;;;42.15;14.45;;;;;;;20.97;48.79;99812.38;4794746;29;20047;-91
2023/09/11 13:02:56;;;;;;;25.35;13.80;;;;;;;20.87;48.67;99792.34;4812895;29;20074;-92
2023/09/11 13:08:29;;;;;;;26.60;13.38;;;;;;;21.02;49.53;99834.28;4900638;27;20135;-91
2023/09/11 13:10:55;;;;;;;26.75;13.63;;;;;;;21.01;49.51;99836.25;4868145;29;20507;-89
2023/09/11 13:13:31;;;;;;;;;;;;;;;21.03;50.48;99838.69;4856214;29;20037;-89
2023/09/11 13:16:00;;;;;;;32.27;13.23;;;;;;;20.76;49.49;99802.47;4857114;29;19951;-89
2023/09/11 13:18:33;;;;;;;43.53;15.23;;;;;;;20.78;48.79;99783.44;4885364;29;20071;-90
2023/09/11 13:22:02;;;;;;;37.67;14.65;;;;;;;21.01;48.42;99841.81;4886489;29;20139;-91
2023/09/11 13:24:28;;;;;;;24.73;13.63;;;;;;;20.66;49.57;99797.50;4883174;29;20082;-91
2023/09/11 13:26:55;;;;;;;26.48;13.02;;;;;;;20.87;49.59;99814.56;4907354;29;20510;-91
2023/09/11 13:29:21;;;;;;;333.63;26.48;;;;;;;20.92;48.64;99805.13;4885421;29;20045;-91
2023/09/11 13:32:00;;;;;;;34.17;14.43;;;;;;;20.75;49.06;99788.94;4873035;29;20051;-91
2023/09/11 13:34:51;;;;;;;35.50;13.30;;;;;;;21.02;49.03;99832.28;4887472;29;20043;-91
2023/09/11 13:37:18;;;;;;;24.52;14.65;;;;;;;20.98;48.93;99816.72;4859101;29;20068;-92
2023/09/11 13:39:52;;;;;;;32.58;20.67;;;;;;;21.10;48.72;99827.69;4905367;29;20047;-93
2023/09/11 13:42:23;;;;;;;47.67;14.93;;;;;;;20.81;50.90;99795.81;4853321;29;20041;-89
2023/09/11 13:45:00;;;;;;;24.60;13.98;;;;;;;20.83;52.03;99827.63;4853742;29;20055;-89
2023/09/11 13:47:43;;;;;;;21.77;13.05;;;;;;;20.61;51.97;99812.50;4863910;29;20065;-91
2023/09/11 13:50:09;;;;;;;24.02;12.88;;;;;;;20.73;52.69;99831.00;4847334;29;20542;-90
2023/09/11 13:52:50;;;;;;;69.35;14.13;;;;;;;20.74;52.43;99834.56;4848584;29;20045;-92
2023/09/11 13:55:39;;;;;;;100.72;16.02;;;;;;;20.65;53.03;99832.81;4817432;29;20049;-91
2023/09/11 14:01:42;;;;;;;53.67;19.95;;;;;;;20.15;55.13;99831.00;4789444;30;20055;-89
2023/09/11 14:04:20;;;;;;;78.20;25.60;;;;;;;19.99;56.31;99830.28;4803013;29;20062;-89
2023/09/11 14:07:01;;;;;;;46.80;18.67;;;;;;;19.55;56.55;99791.63;4772998;30;20090;-90
2023/09/11 14:09:29;;;;;;;75.93;20.63;;;;;;;19.70;57.80;99837.94;4779894;30;20069;-90
2023/09/11 14:11:55;;;;;;;98.38;30.48;;;;;;;19.52;58.68;99797.91;4761099;30;20062;-91
2023/09/11 14:14:21;;;;;;;46.30;20.93;;;;;;;19.63;58.07;99833.03;4760636;30;20088;-91
2023/09/11 14:16:47;;;;;;;49.83;19.63;;;;;;;19.54;57.78;99824.09;4761593;30;20039;-92
2023/09/11 14:19:16;;;;;;;93.33;30.77;;;;;;;19.42;58.72;99827.78;4791566;29;20832;-91
2023/09/11 14:21:53;;;;;;;68.40;19.45;;;;;;;19.40;58.31;99832.91;4791141;30;20043;-91
2023/09/11 14:24:34;;;;;;;51.90;19.17;;;;;;;18.94;58.24;99781.84;4803688;29;20062;-90
2023/09/11 14:27:00;;;;;;;39.13;17.70;;;;;;;18.89;58.55;99790.44;4815805;29;20073;-89
2023/09/11 14:29:54;;;;;;;34.92;17.98;;;;;;;19.10;59.38;99832.53;4832199;29;20106;-92
2023/09/11 14:32:35;;;;;;;119.68;19.90;;;;;;;18.59;59.04;99765.13;4829998;29;20073;-92
2023/09/11 14:39:24;;;;;;;31.13;17.50;;;;;;;18.69;59.90;99806.13;4935426;23;20032;-90
2023/09/11 14:43:00;;;;;;;37.30;16.10;;;;;;;18.81;60.18;99847.66;4893168;29;20040;-92
2023/09/11 14:45:28;;;;;;;42.13;17.30;;;;;;;18.48;60.74;99793.31;4888310;29;20069;-90
2023/09/11 14:47:57;;;;;;;42.97;17.48;;;;;;;18.30;60.81;99780.94;4888935;29;20139;-91
2023/09/11 14:50:27;;;;;;;41.33;17.17;;;;;;;18.64;60.75;99834.06;4855037;29;20060;-91
2023/09/11 14:53:08;;;;;;;38.78;17.90;;;;;;;18.17;61.00;99771.91;4874242;29;20089;-90
2023/09/11 14:55:34;;;;;;;36.25;18.20;;;;;;;18.42;61.52;99816.09;4876922;29;20075;-92
2023/09/11 14:58:01;;;;;;;51.65;19.23;;;;;;;18.07;61.67;99764.09;4844295;29;20139;-93
2023/09/11 15:00:33;;;;;;;38.70;19.35;;;;;;;17.99;61.53;99754.81;4854486;29;20075;-92
2023/09/11 15:03:00;;;;;;;36.78;18.73;;;;;;;18.40;62.42;99832.22;4856054;29;20053;-93
2023/09/11 15:05:27;;;;;;;41.72;19.10;;;;;;;18.36;62.36;99826.59;4842309;29;20142;-92
2023/09/11 15:08:19;;;;;;;48.53;19.65;;;;;;;18.30;62.47;99830.78;4844822;29;20067;-93
2023/09/11 15:10:47;;;;;;;85.50;19.58;;;;;;;18.07;63.26;99800.88;4859852;29;20053;-91
2023/09/11 15:13:42;;;;;;;90.07;21.95;;;;;;;18.00;63.88;99806.22;4840747;29;20065;-92
2023/09/11 15:16:13;;;;;;;87.65;24.00;;;;;;;17.72;64.19;99767.44;4857191;29;20081;-93
2023/09/11 15:18:45;;;;;;;126.22;25.50;;;;;;;18.04;64.58;99825.66;4838892;29;20093;-92
2023/09/11 15:21:35;;;;;;;85.93;24.58;;;;;;;18.06;64.56;99834.44;4853409;29;20041;-92
2023/09/11 15:24:02;;;;;;;84.05;25.13;;;;;;;17.57;64.88;99777.25;4897449;29;20047;-91
2023/09/11 15:26:31;;;;;;;68.25;22.88;;;;;;;17.67;65.05;99805.56;4891767;29;20044;-92
2023/09/11 15:37:07;;;;;;;58.47;30.55;;;;;;;17.67;65.44;99841.50;4894287;29;20040;-91
2023/09/11 15:39:35;;;;;;;;;;;;;;;17.63;65.86;99844.19;4897495;29;20045;-91
2023/09/11 15:46:05;;;;;;;81.95;35.40;;;;;;;17.09;65.75;99786.41;4820026;29;20064;-91
2023/09/11 15:48:33;;;;;;;95.13;36.22;;;;;;;17.24;66.10;99823.56;4809569;29;20047;-91
2023/09/11 15:51:11;;;;;;;129.82;66.30;;;;;;;17.13;65.38;99814.94;4815815;29;20104;-91
2023/09/11 15:54:03;;;;;;;266.50;81.47;;;;;;;17.30;66.39;99849.81;4784313;29;20078;-92
2023/09/11 15:56:35;;;;;;;169.00;77.15;;;;;;;17.03;66.36;99813.44;4802187;29;20038;-91
2023/09/11 15:59:04;;;;;;;163.43;72.43;;;;;;;17.19;66.63;99851.44;4797100;29;20065;-88
2023/09/11 16:01:30;;;;;;;130.20;64.15;;;;;;;17.08;67.05;99849.09;4826960;29;20520;-91
2023/09/11 16:03:59;;;;;;;99.32;41.42;;;;;;;16.81;66.84;99817.44;4810481;29;20050;-90
2023/09/11 16:06:53;;;;;;;82.35;29.65;;;;;;;16.99;67.20;99859.47;4805873;29;20054;-90
2023/09/11 16:09:28;;;;;;;75.03;33.07;;;;;;;16.67;67.10;99803.91;4825546;29;20065;-89
2023/09/11 16:12:19;;;;;;;88.68;37.65;;;;;;;16.96;67.93;99851.88;4781965;29;20141;-90
2023/09/11 16:15:15;;;;;;;128.55;47.47;;;;;;;16.90;68.01;99848.50;4797402;29;20148;-91
2023/09/11 16:17:45;;;;;;;145.35;53.00;;;;;;;16.68;68.21;99819.31;4796221;29;20058;-88
2023/09/11 16:20:15;;;;;;;129.38;48.00;;;;;;;16.67;68.36;99828.75;4811190;29;20058;-90
2023/09/11 16:23:47;;;;;;;107.28;46.20;;;;;;;16.79;68.86;99858.41;4794183;29;20557;-90
2023/09/11 16:26:17;;;;;;;109.32;48.15;;;;;;;16.56;68.73;99837.81;4809216;29;20464;-91
2023/09/11 16:28:49;;;;;;;93.25;42.97;;;;;;;16.25;68.81;99807.91;4812916;29;20143;-91
2023/09/11 16:31:15;;;;;;;83.93;39.63;;;;;;;16.43;68.95;99850.78;4798362;29;20088;-91
2023/09/11 16:38:12;;;;;;;74.20;28.05;;;;;;;16.40;69.78;99863.28;4900778;29;20049;-91
2023/09/11 16:43:29;;;;;;;96.20;24.55;;;;;;;16.30;69.57;99862.91;4877651;29;20045;-89
2023/09/11 16:46:01;;;;;;;91.50;25.92;;;;;;;16.05;69.86;99835.19;4862907;29;20053;-90
2023/09/11 16:48:29;;;;;;;84.80;29.65;;;;;;;16.19;69.92;99863.31;4885042;24;20056;-89
2023/09/11 16:50:55;;;;;;;91.35;32.90;;;;;;;16.19;69.88;99862.47;4868268;29;20136;-89
2023/09/11 16:53:22;;;;;;;73.38;29.48;;;;;;;15.94;69.92;99833.97;4871800;29;20072;-87
2023/09/11 16:56:16;;;;;;;115.30;34.95;;;;;;;16.23;70.03;99879.19;4889196;29;20772;-89
2023/09/11 16:58:49;;;;;;;130.55;34.72;;;;;;;15.91;70.33;99820.88;4878022;29;20067;-91
2023/09/11 17:05:14;;;;;;;94.22;30.60;;;;;;;16.09;70.54;99883.03;4896184;29;20051;-90
2023/09/11 17:07:54;;;;;;;72.70;30.05;;;;;;;15.90;70.58;99857.84;4843469;29;20122;-91
2023/09/11 17:10:23;;;;;;;77.80;29.05;;;;;;;15.79;71.15;99849.16;4819163;29;20061;-91
2023/09/11 17:12:58;;;;;;;53.88;26.20;;;;;;;15.70;71.44;99840.97;4827335;29;20614;-88
2023/09/11 17:15:26;;;;;;;71.10;26.15;;;;;;;15.64;71.58;99841.47;4820165;29;20040;-90
2023/09/11 17:17:53;;;;;;;74.47;27.50;;;;;;;15.73;71.36;99854.06;4831244;29;20068;-92
2023/09/11 17:20:51;;;;;;;63.78;26.77;;;;;;;15.73;71.00;99867.84;4913455;23;20080;-92
2023/09/11 17:23:34;;;;;;;60.60;25.50;;;;;;;15.54;71.67;99852.88;4899785;29;20042;-90
2023/09/11 17:26:15;;;;;;;57.72;24.90;;;;;;;15.69;71.89;99877.09;4885317;23;20045;-89
2023/09/11 17:28:42;;;;;;;64.75;24.35;;;;;;;15.75;71.16;99897.84;4853161;29;20045;-90
2023/09/11 17:31:10;;;;;;;47.00;23.58;;;;;;;15.71;71.93;99892.19;4880513;29;20379;-92
2023/09/11 17:33:39;;;;;;;48.38;23.02;;;;;;;15.47;72.00;99858.91;4873469;29;20100;-89
2023/09/11 17:36:12;;;;;;;39.28;21.83;;;;;;;15.22;71.87;99817.38;4854342;29;20046;-92
2023/09/11 17:38:44;;;;;;;49.78;22.42;;;;;;;15.61;71.95;99891.72;4858068;29;20045;-92
2023/09/11 17:41:12;;;;;;;40.20;21.98;;;;;;;15.29;71.98;99849.91;4872080;29;20129;-91
2023/09/11 17:43:38;;;;;;;41.30;21.88;;;;;;;15.42;72.03;99873.66;4900493;29;20095;-93
2023/09/11 17:48:59;;;;;;;57.40;25.55;;;;;;;15.05;72.33;99833.97;4930722;23;20064;-88
2023/09/11 17:51:35;;;;;;;54.53;26.60;;;;;;;15.07;72.04;99844.66;4893792;29;20045;-94
2023/09/11 17:55:10;;;;;;;49.78;25.08;;;;;;;15.43;72.75;99902.84;4899243;29;20044;-94
2023/09/11 18:01:22;;;;;;;49.28;24.30;;;;;;;14.99;72.28;99838.84;4901290;29;20076;-90
2023/09/11 18:03:53;;;;;;;51.67;23.95;;;;;;;15.13;72.42;99871.69;4916828;29;20040;-91
2023/09/11 18:06:23;;;;;;;41.53;23.27;;;;;;;15.27;72.77;99897.06;4916346;29;20107;-91
2023/09/11 18:08:53;;;;;;;44.88;21.70;;;;;;;14.98;72.39;99853.75;4920360;29;20052;-89
2023/09/11 18:12:19;;;;;;;38.83;21.50;;;;;;;15.31;72.90;99910.19;4903044;29;20139;-89
2023/09/11 18:14:48;;;;;;;;;;;;;;;15.22;72.60;99911.00;4917133;29;20142;-91
2023/09/11 18:17:17;;;;;;;34.55;22.20;;;;;;;15.21;72.90;99923.19;4911823;29;19927;-91
2023/09/11 18:27:07;;;;;;;51.55;23.23;;;;;;;14.79;72.30;99878.09;4876799;29;20049;-89
2023/09/11 18:29:55;;;;;;;47.70;24.52;;;;;;;14.76;72.85;99884.25;4869565;29;20055;-91
2023/09/11 18:32:22;;;;;;;50.25;24.13;;;;;;;14.96;73.30;99926.78;4856830;29;20052;-90
2023/09/11 18:35:32;;;;;;;66.85;26.80;;;;;;;14.73;73.84;99898.66;4869351;29;20060;-92
2023/09/11 18:38:01;;;;;;;65.35;27.65;;;;;;;14.93;73.96;99930.19;4858505;29;20037;-94
2023/09/11 18:40:29;;;;;;;59.33;26.15;;;;;;;14.73;74.04;99901.41;4903657;23;20480;-90
2023/09/11 18:43:45;;;;;;;51.45;25.35;;;;;;;14.92;73.89;99931.34;4883668;29;20052;-89
2023/09/11 18:46:36;;;;;;;56.30;24.85;;;;;;;14.71;73.74;99898.19;4913054;29;20047;-90
2023/09/11 18:49:21;;;;;;;51.40;25.15;;;;;;;14.60;74.68;99897.69;4879354;29;20131;-89
2023/09/11 18:52:12;;;;;;;52.70;25.38;;;;;;;14.76;75.23;99926.34;4867171;29;20051;-90
2023/09/11 18:55:02;;;;;;;52.03;27.52;;;;;;;14.33;75.42;99865.81;4897360;29;20075;-88
2023/09/11 18:57:29;;;;;;;74.15;27.48;;;;;;;14.36;75.47;99883.63;4903665;29;20044;-90
2023/09/11 18:59:56;;;;;;;65.95;32.25;;;;;;;14.43;75.45;99901.25;4904338;29;20064;-87
2023/09/11 19:02:40;;;;;;;70.10;35.10;;;;;;;14.32;75.86;99891.72;4923921;29;20055;-87
2023/09/11 19:05:20;;;;;;;70.75;33.97;;;;;;;14.29;75.49;99886.88;4908257;29;20052;-87
2023/09/11 19:07:47;;;;;;;62.38;31.45;;;;;;;14.27;75.52;99900.13;4904037;29;20044;-90